^^
Your Local Weather - Clay, NY Station Historical Data
Daily Summary for January 11, 2018 Units:  Metric    English   Both
« Previous Day
Next Day »
Daily Weekly Monthly Yearly Custom
  High: Low: Average:
Temperature: 12.5 °C 3.3 °C 9.1 °C
Dew Point: 9.2 °C -1.2 °C 4.2 °C
Humidity: 88% 61% 72%
Wind Speed: 14.5km/h 0km/h 4.5km/h
Wind Gust: 25.7km/h - -
Wind- - South
Pressure: 1020.5 hPa 1012.4 hPa -
Precipitation: 2.03 mm    
Historical Graphs
 
 
Tabular Data for January 11, 2018
Time Temperature Dew Point Pressure Wind Wind Speed Wind Gust Humidity Rainfall Rate (Hourly) solar
00:03 4.7 °C -1.2 °C 1020.2 hPa South 3.2 km/h 3.2 km/h 66% 0 mm 0 W/m2
00:12 4.6 °C -1 °C 1020.5 hPa South 1.6 km/h 1.6 km/h 67% 0 mm 0 W/m2
00:18 4.4 °C -1.2 °C 1020.5 hPa Calm   1.6 km/h 67% 0 mm 0 W/m2
00:24 4.1 °C -1.1 °C 1020.2 hPa Calm     69% 0 mm 0 W/m2
00:29 3.8 °C -1.2 °C 1020.2 hPa Calm     70% 0 mm 0 W/m2
00:46 3.7 °C -1.1 °C 1020.2 hPa Calm     71% 0 mm 0 W/m2
00:52 3.8 °C -1.2 °C 1020.2 hPa Calm     70% 0 mm 0 W/m2
01:14 3.9 °C -1.1 °C 1020.2 hPa Calm   1.6 km/h 70% 0 mm 0 W/m2
01:19 3.8 °C -0.9 °C 1020.2 hPa Calm     71% 0 mm 0 W/m2
01:26 3.8 °C -0.9 °C 1020.2 hPa Calm   1.6 km/h 71% 0 mm 0 W/m2
01:32 3.8 °C -1 °C 1020.2 hPa Calm     71% 0 mm 0 W/m2
01:38 3.8 °C -1 °C 1020.2 hPa Calm   1.6 km/h 71% 0 mm 0 W/m2
01:43 3.7 °C -0.9 °C 1020.2 hPa Calm   3.2 km/h 72% 0 mm 0 W/m2
01:49 3.9 °C -0.9 °C 1020.2 hPa South 1.6 km/h 1.6 km/h 71% 0 mm 0 W/m2
01:58 4 °C -0.8 °C 1020.2 hPa South 1.6 km/h 1.6 km/h 71% 0 mm 0 W/m2
02:04 3.9 °C -0.8 °C 1020.5 hPa Calm     71% 0 mm 0 W/m2
02:09 3.8 °C -0.9 °C 1020.5 hPa Calm     71% 0 mm 0 W/m2
02:22 4.2 °C -0.8 °C 1020.5 hPa Calm     70% 0 mm 0 W/m2
02:28 4.4 °C -0.6 °C 1020.2 hPa SSE 1.6 km/h 6.4 km/h 70% 0 mm 0 W/m2
02:34 4.6 °C -0.7 °C 1020.2 hPa SSE 3.2 km/h 4.8 km/h 69% 0 mm 0 W/m2
02:40 4.6 °C -0.7 °C 1020.2 hPa SSE 1.6 km/h 1.6 km/h 69% 0 mm 0 W/m2
02:45 4.6 °C -0.7 °C 1020.2 hPa SSE 1.6 km/h 1.6 km/h 69% 0 mm 0 W/m2
02:52 4.3 °C -0.7 °C 1020.2 hPa SSE 1.6 km/h 1.6 km/h 70% 0 mm 0 W/m2
02:58 4.5 °C -0.5 °C 1020.2 hPa Calm   3.2 km/h 70% 0 mm 0 W/m2
03:04 4.6 °C -0.4 °C 1019.9 hPa SSE 1.6 km/h 1.6 km/h 70% 0 mm 0 W/m2
03:16 5.3 °C 0.1 °C 1019.5 hPa SSE 4.8 km/h 4.8 km/h 69% 0 mm 0 W/m2
03:22 5.4 °C 0 °C 1019.5 hPa SE 3.2 km/h 4.8 km/h 68% 0 mm 0 W/m2
03:28 5.3 °C -0.1 °C 1019.5 hPa SSE 3.2 km/h 8 km/h 68% 0 mm 0 W/m2
03:36 5.4 °C -0.1 °C 1019.5 hPa SSE 3.2 km/h 3.2 km/h 68% 0 mm 0 W/m2
03:43 5.4 °C 0 °C 1019.5 hPa South 3.2 km/h 4.8 km/h 68% 0 mm 0 W/m2
03:50 5.7 °C 0.1 °C 1019.5 hPa SSW 4.8 km/h 4.8 km/h 67% 0 mm 0 W/m2
03:55 5.9 °C 0.1 °C 1019.5 hPa SSE 4.8 km/h 4.8 km/h 66% 0 mm 0 W/m2
04:02 5.9 °C 0 °C 1019.5 hPa SSW 3.2 km/h 6.4 km/h 66% 0 mm 0 W/m2
04:08 5.9 °C 0 °C 1019.5 hPa SSW 3.2 km/h 6.4 km/h 66% 0 mm 0 W/m2
04:14 5.9 °C 0.1 °C 1020.2 hPa SSW 3.2 km/h 3.2 km/h 66% 0 mm 0 W/m2
04:19 5.9 °C 0.1 °C 1019.9 hPa SSW 1.6 km/h 1.6 km/h 66% 0 mm 0 W/m2
04:26 5.6 °C -0.1 °C 1019.9 hPa Calm   1.6 km/h 67% 0 mm 0 W/m2
04:32 5.2 °C -0.2 °C 1019.9 hPa SSW 1.6 km/h 3.2 km/h 68% 0 mm 0 W/m2
04:38 5.2 °C -0.1 °C 1019.9 hPa SSW 1.6 km/h 3.2 km/h 69% 0 mm 0 W/m2
04:43 4.9 °C 0.1 °C 1020.2 hPa SSW 1.6 km/h 1.6 km/h 71% 0 mm 0 W/m2
04:49 4.7 °C 0.5 °C 1020.2 hPa Calm     74% 0 mm 0 W/m2
04:56 4 °C 0.2 °C 1019.9 hPa Calm   3.2 km/h 76% 0 mm 0 W/m2
05:08 4.5 °C 1.3 °C 1019.9 hPa SE 3.2 km/h 4.8 km/h 80% 0 mm 0 W/m2
05:13 4.6 °C 1.3 °C 1020.2 hPa SE 3.2 km/h 4.8 km/h 79% 0 mm 0 W/m2
05:20 4.7 °C 1.1 °C 1020.2 hPa SE 1.6 km/h 1.6 km/h 77% 0 mm 0 W/m2
05:35 4.6 °C 1.1 °C 1019.9 hPa SE 4.8 km/h 4.8 km/h 78% 0 mm 0 W/m2
05:42 4.7 °C 1 °C 1019.9 hPa SE 1.6 km/h 3.2 km/h 77% 0 mm 0 W/m2
05:48 4.6 °C 0.9 °C 1019.5 hPa SE 1.6 km/h 8 km/h 77% 0 mm 0 W/m2
05:54 4.9 °C 1.1 °C 1020.2 hPa SSE 1.6 km/h 8 km/h 76% 0 mm 0 W/m2
05:59 5.3 °C 0.8 °C 1020.2 hPa South 4.8 km/h 4.8 km/h 73% 0 mm 0 W/m2
06:22 5.6 °C 0.8 °C 1019.5 hPa SSE 4.8 km/h 8 km/h 71% 0 mm 0 W/m2
06:28 5.8 °C 0.9 °C 1020.2 hPa South 4.8 km/h 8 km/h 71% 0 mm 0 W/m2
06:33 5.8 °C 0.8 °C 1020.2 hPa South 3.2 km/h 4.8 km/h 70% 0 mm 0 W/m2
06:39 5.9 °C 0.9 °C 1020.2 hPa South 1.6 km/h 1.6 km/h 70% 0 mm 0 W/m2
06:46 5.7 °C 0.7 °C 1019.9 hPa South 1.6 km/h 1.6 km/h 70% 0 mm 0 W/m2
06:52 5.4 °C 0.8 °C 1020.2 hPa Calm     72% 0 mm 0 W/m2
06:58 5.2 °C 0.8 °C 1020.2 hPa Calm   1.6 km/h 73% 0 mm 0 W/m2
07:04 4.6 °C 0.7 °C 1020.2 hPa Calm   1.6 km/h 76% 0 mm 0 W/m2
07:10 4.4 °C 1.1 °C 1019.9 hPa South 1.6 km/h 1.6 km/h 79% 0 mm 0 W/m2
07:15 4.3 °C 1.1 °C 1020.2 hPa South 1.6 km/h 1.6 km/h 80% 0 mm 0 W/m2
07:22 4.3 °C 1.1 °C 1020.2 hPa Calm     80% 0 mm 0 W/m2
07:28 3.7 °C 0.8 °C 1020.2 hPa Calm     81% 0 mm 0 W/m2
07:40 3.4 °C 0.8 °C 1020.2 hPa Calm     83% 0 mm 0 W/m2
07:45 3.3 °C 0.9 °C 1020.2 hPa Calm   1.6 km/h 84% 0 mm 0 W/m2
07:52 4.2 °C 1.8 °C 1020.2 hPa SE 1.6 km/h 3.2 km/h 84% 0 mm 0 W/m2
07:58 5.1 °C 2.1 °C 1020.2 hPa SE 3.2 km/h 4.8 km/h 81% 0 mm 5 W/m2
08:03 5.8 °C 2.2 °C 1020.2 hPa SE 3.2 km/h 4.8 km/h 78% 0 mm 7 W/m2
08:15 5.9 °C 1.8 °C 1020.2 hPa SE 3.2 km/h 6.4 km/h 75% 0 mm 12 W/m2
08:22 6.1 °C 2 °C 1020.2 hPa SE 3.2 km/h 3.2 km/h 75% 0 mm 18 W/m2
08:28 6.2 °C 1.9 °C 1020.2 hPa ESE 1.6 km/h 3.2 km/h 74% 0 mm 19 W/m2
08:33 5.9 °C 1.6 °C 1020.2 hPa ESE 1.6 km/h 1.6 km/h 74% 0 mm 19 W/m2
08:39 5.8 °C 1.7 °C 1020.2 hPa Calm   1.6 km/h 75% 0 mm 25 W/m2
08:46 5.7 °C 1.8 °C 1020.2 hPa Calm   1.6 km/h 76% 0 mm 33 W/m2
08:52 5.6 °C 1.7 °C 1020.5 hPa Calm     76% 0 mm 26 W/m2
09:00 5.7 °C 1.9 °C 1020.5 hPa Calm     77% 0 mm 40 W/m2
09:06 5.6 °C 1.9 °C 1020.5 hPa Calm     77% 0 mm 65 W/m2
09:12 5.7 °C 2 °C 1020.5 hPa Calm     77% 0 mm 79 W/m2
09:18 5.9 °C 2.2 °C 1020.5 hPa Calm   3.2 km/h 77% 0 mm 74 W/m2
09:23 6.4 °C 2.4 °C 1020.2 hPa ESE 1.6 km/h 4.8 km/h 76% 0 mm 83 W/m2
09:36 7 °C 2.5 °C 1020.5 hPa ESE 1.6 km/h 4.8 km/h 73% 0 mm 79 W/m2
09:42 7.3 °C 2.4 °C 1020.5 hPa SSE 1.6 km/h 1.6 km/h 71% 0 mm 77 W/m2
09:59 7.6 °C 2.5 °C 1020.5 hPa SE 1.6 km/h 1.6 km/h 70% 0 mm 104 W/m2
10:05 7.6 °C 2.4 °C 1020.5 hPa Calm   3.2 km/h 70% 0 mm 137 W/m2
10:12 7.8 °C 2.5 °C 1020.5 hPa SSE 1.6 km/h 1.6 km/h 69% 0 mm 172 W/m2
10:18 8.2 °C 2.7 °C 1020.5 hPa SSE 3.2 km/h 6.4 km/h 68% 0 mm 167 W/m2
10:22 8.4 °C 2.6 °C 1020.5 hPa SE 3.2 km/h 4.8 km/h 67% 0 mm 243 W/m2
10:28 8.8 °C 2.8 °C 1020.5 hPa SE 4.8 km/h 8 km/h 66% 0 mm 243 W/m2
10:34 8.9 °C 2.7 °C 1020.5 hPa South 4.8 km/h 6.4 km/h 65% 0 mm 220 W/m2
10:46 9.4 °C 2.9 °C 1020.2 hPa SSE 4.8 km/h 8 km/h 64% 0 mm 265 W/m2
10:52 9.6 °C 3.1 °C 1020.2 hPa SSE 4.8 km/h 8 km/h 64% 0 mm 225 W/m2
10:58 9.7 °C 3.2 °C 1020.2 hPa SE 4.8 km/h 8 km/h 64% 0 mm 185 W/m2
11:03 9.6 °C 3.1 °C 1020.2 hPa SSE 6.4 km/h 8 km/h 64% 0 mm 144 W/m2
11:10 9.8 °C 3.3 °C 1020.2 hPa SSE 4.8 km/h 4.8 km/h 64% 0 mm 169 W/m2
11:15 9.8 °C 3.3 °C 1019.9 hPa SSE 4.8 km/h 8 km/h 64% 0 mm 148 W/m2
11:22 9.8 °C 3.3 °C 1019.9 hPa SSE 3.2 km/h 4.8 km/h 64% 0 mm 142 W/m2
11:30 9.9 °C 3.4 °C 1019.5 hPa South 4.8 km/h 4.8 km/h 64% 0 mm 141 W/m2
11:35 10.1 °C 3.6 °C 1019.5 hPa SE 4.8 km/h 8 km/h 64% 0 mm 144 W/m2
11:43 10.3 °C 3.6 °C 1019.5 hPa SW 4.8 km/h 9.7 km/h 63% 0 mm 160 W/m2
11:49 10.4 °C 3.9 °C 1019.5 hPa South 4.8 km/h 4.8 km/h 64% 0 mm 160 W/m2
11:56 10.6 °C 3.8 °C 1019.2 hPa SSE 4.8 km/h 8 km/h 63% 0 mm 179 W/m2
12:03 10.9 °C 4.1 °C 1018.8 hPa SW 4.8 km/h 8 km/h 63% 0 mm 260 W/m2
12:10 11.1 °C 4.1 °C 1018.8 hPa South 4.8 km/h 6.4 km/h 62% 0 mm 241 W/m2
12:15 11.2 °C 4.2 °C 1018.8 hPa South 6.4 km/h 8 km/h 62% 0 mm 253 W/m2
12:22 11.1 °C 4.1 °C 1018.5 hPa South 8 km/h 8 km/h 62% 0 mm 295 W/m2
12:33 11.4 °C 4.2 °C 1018.5 hPa SE 6.4 km/h 6.4 km/h 61% 0 mm 260 W/m2
12:40 11.5 °C 4.2 °C 1018.2 hPa SSE 6.4 km/h 11.3 km/h 61% 0 mm 244 W/m2
12:45 11.6 °C 4.3 °C 1018.5 hPa SSE 8 km/h 14.5 km/h 61% 0 mm 250 W/m2
12:52 11.7 °C 4.4 °C 1018.2 hPa SE 6.4 km/h 6.4 km/h 61% 0 mm 232 W/m2
12:58 11.7 °C 4.4 °C 1018.2 hPa South 4.8 km/h 6.4 km/h 61% 0 mm 244 W/m2
13:06 11.8 °C 4.7 °C 1018.2 hPa SSE 6.4 km/h 11.3 km/h 62% 0 mm 272 W/m2
13:12 12.1 °C 4.8 °C 1017.8 hPa SSE 8 km/h 8 km/h 61% 0 mm 209 W/m2
13:18 11.9 °C 4.7 °C 1017.8 hPa South 6.4 km/h 11.3 km/h 61% 0 mm 185 W/m2
13:24 12.1 °C 4.8 °C 1017.8 hPa South 6.4 km/h 8 km/h 61% 0 mm 179 W/m2
13:29 12.1 °C 5 °C 1017.8 hPa SSE 6.4 km/h 8 km/h 62% 0 mm 165 W/m2
13:35 12.1 °C 5.1 °C 1017.8 hPa South 6.4 km/h 8 km/h 62% 0 mm 158 W/m2
13:42 12.1 °C 5 °C 1017.8 hPa SSE 4.8 km/h 4.8 km/h 62% 0 mm 144 W/m2
13:49 12 °C 4.9 °C 1017.5 hPa South 4.8 km/h 4.8 km/h 62% 0 mm 127 W/m2
13:56 11.9 °C 4.9 °C 1017.8 hPa South 4.8 km/h 4.8 km/h 62% 0 mm 102 W/m2
14:02 11.8 °C 4.8 °C 1017.5 hPa SE 3.2 km/h 3.2 km/h 62% 0 mm 86 W/m2
14:15 11.7 °C 5.1 °C 1017.5 hPa SE 4.8 km/h 4.8 km/h 64% 0 mm 91 W/m2
14:22 11.9 °C 5.3 °C 1017.2 hPa SSW 4.8 km/h 11.3 km/h 64% 0 mm 86 W/m2
14:28 12.2 °C 5.6 °C 1017.2 hPa South 6.4 km/h 9.7 km/h 64% 0 mm 72 W/m2
14:33 12.3 °C 5.4 °C 1017.2 hPa SSW 8 km/h 12.9 km/h 63% 0 mm 79 W/m2
14:40 12.2 °C 5.6 °C 1017.2 hPa SE 6.4 km/h 8 km/h 64% 0 mm 93 W/m2
14:46 12.3 °C 5.7 °C 1017.2 hPa SW 8 km/h 8 km/h 64% 0 mm 100 W/m2
14:52 12.3 °C 5.7 °C 1017.2 hPa SSW 8 km/h 8 km/h 64% 0 mm 86 W/m2
14:58 12.3 °C 5.7 °C 1016.8 hPa South 6.4 km/h 8 km/h 64% 0 mm 90 W/m2
15:06 12.4 °C 5.8 °C 1016.8 hPa SSW 8 km/h 12.9 km/h 64% 0 mm 67 W/m2
15:12 12.3 °C 5.7 °C 1016.8 hPa SSE 8 km/h 9.7 km/h 64% 0 mm 67 W/m2
15:18 12.1 °C 5.7 °C 1016.8 hPa SW 3.2 km/h 9.7 km/h 65% 0 mm 81 W/m2
15:24 12.2 °C 6.1 °C 1016.8 hPa WSW 3.2 km/h 3.2 km/h 66% 0 mm 65 W/m2
15:29 12.3 °C 5.9 °C 1016.8 hPa SSE 4.8 km/h 4.8 km/h 65% 0 mm 72 W/m2
15:36 12.1 °C 5.9 °C 1016.8 hPa South 4.8 km/h 4.8 km/h 66% 0 mm 51 W/m2
15:42 11.9 °C 5.8 °C 1016.8 hPa South 3.2 km/h 4.8 km/h 66% 0 mm 44 W/m2
15:48 12.1 °C 5.9 °C 1016.8 hPa South 4.8 km/h 4.8 km/h 66% 0 mm 46 W/m2
15:53 12 °C 5.8 °C 1016.8 hPa SE 3.2 km/h 6.4 km/h 66% 0 mm 44 W/m2
16:00 12.1 °C 6.1 °C 1016.8 hPa SE 1.6 km/h 4.8 km/h 67% 0 mm 39 W/m2
16:06 12.1 °C 6.3 °C 1016.8 hPa SSE 3.2 km/h 6.4 km/h 68% 0 mm 28 W/m2
16:12 12.1 °C 6.1 °C 1016.8 hPa South 4.8 km/h 4.8 km/h 67% 0 mm 23 W/m2
16:18 11.9 °C 6.2 °C 1016.8 hPa SSE 4.8 km/h 6.4 km/h 68% 0 mm 21 W/m2
16:23 12.1 °C 6.6 °C 1016.8 hPa SE 4.8 km/h 8 km/h 69% 0 mm 18 W/m2
16:30 12.3 °C 6.6 °C 1016.8 hPa South 6.4 km/h 6.4 km/h 68% 0 mm 12 W/m2
16:35 12.3 °C 6.6 °C 1016.8 hPa South 8 km/h 8 km/h 68% 0 mm 9 W/m2
16:42 12.1 °C 6.6 °C 1016.5 hPa SSE 6.4 km/h 6.4 km/h 69% 0 mm 0 W/m2
16:48 11.8 °C 6.3 °C 1016.1 hPa SSE 4.8 km/h 9.7 km/h 69% 0 mm 0 W/m2
16:53 11.8 °C 6.5 °C 1016.1 hPa SSE 4.8 km/h 6.4 km/h 70% 0 mm 0 W/m2
17:05 11.8 °C 6.5 °C 1016.1 hPa South 6.4 km/h 9.7 km/h 70% 0 mm 0 W/m2
17:12 11.8 °C 6.7 °C 1016.1 hPa SSE 4.8 km/h 6.4 km/h 71% 0 mm 0 W/m2
17:18 11.8 °C 6.9 °C 1016.1 hPa SSE 4.8 km/h 6.4 km/h 72% 0 mm 0 W/m2
17:23 11.9 °C 7.1 °C 1016.1 hPa SSW 4.8 km/h 6.4 km/h 72% 0 mm 0 W/m2
17:30 11.8 °C 6.9 °C 1015.8 hPa SSW 4.8 km/h 9.7 km/h 72% 0 mm 0 W/m2
17:35 11.9 °C 7.2 °C 1015.8 hPa SSW 4.8 km/h 9.7 km/h 73% 0 mm 0 W/m2
17:42 11.9 °C 7.2 °C 1015.8 hPa South 6.4 km/h 14.5 km/h 73% 0 mm 0 W/m2
17:48 12.1 °C 7.6 °C 1015.8 hPa South 8 km/h 14.5 km/h 74% 0 mm 0 W/m2
17:55 12.1 °C 7.6 °C 1015.5 hPa SSE 9.7 km/h 14.5 km/h 74% 0 mm 0 W/m2
18:02 12.2 °C 7.9 °C 1015.1 hPa South 9.7 km/h 12.9 km/h 75% 0 mm 0 W/m2
18:08 12.3 °C 7.8 °C 1015.1 hPa South 11.3 km/h 12.9 km/h 74% 0 mm 0 W/m2
18:14 12.1 °C 7.6 °C 1015.1 hPa SSE 11.3 km/h 20.9 km/h 74% 0 mm 0 W/m2
18:18 12.2 °C 7.9 °C 1015.1 hPa South 11.3 km/h 20.9 km/h 75% 0 mm 0 W/m2
18:25 12.3 °C 7.8 °C 1015.1 hPa SSW 14.5 km/h 16.1 km/h 74% 0 mm 0 W/m2
18:32 12.2 °C 7.9 °C 1015.1 hPa South 12.9 km/h 14.5 km/h 75% 0 mm 0 W/m2
18:38 12.2 °C 7.9 °C 1015.1 hPa SSE 12.9 km/h 25.7 km/h 75% 0 mm 0 W/m2
18:40 12.2 °C 7.9 °C 1015.1 hPa SSW 12.9 km/h 12.9 km/h 75% 0 mm 0 W/m2
18:50 12.1 °C 7.9 °C 1015.5 hPa SW 8 km/h 14.5 km/h 76% 0 mm 0 W/m2
18:52 12.2 °C 8.3 °C 1015.1 hPa South 9.7 km/h 14.5 km/h 77% 0 mm 0 W/m2
18:58 12.2 °C 8.1 °C 1015.1 hPa SSW 11.3 km/h 25.7 km/h 76% 0 mm 0 W/m2
19:04 12.2 °C 8.1 °C 1015.1 hPa SSE 11.3 km/h 12.9 km/h 76% 0 mm 0 W/m2
19:10 12.1 °C 8.2 °C 1015.1 hPa SSW 9.7 km/h 14.5 km/h 77% 0 mm 0 W/m2
19:15 12.2 °C 8.3 °C 1015.1 hPa SW 9.7 km/h 14.5 km/h 77% 0 mm 0 W/m2
19:18 12.2 °C 8.1 °C 1015.1 hPa South 9.7 km/h 14.5 km/h 76% 0 mm 0 W/m2
19:23 12.3 °C 8.3 °C 1015.1 hPa South 9.7 km/h 11.3 km/h 77% 0 mm 0 W/m2
19:30 12.3 °C 8.4 °C 1014.8 hPa South 9.7 km/h 9.7 km/h 77% 0 mm 0 W/m2
19:36 12.2 °C 8.5 °C 1014.8 hPa SSW 9.7 km/h 11.3 km/h 78% 0 mm 0 W/m2
19:42 12.3 °C 8.4 °C 1014.8 hPa SSW 9.7 km/h 9.7 km/h 77% 0 mm 0 W/m2
19:48 12.3 °C 8.6 °C 1014.8 hPa SSE 9.7 km/h 16.1 km/h 78% 0 mm 0 W/m2
19:54 12.4 °C 8.4 °C 1014.4 hPa SSE 11.3 km/h 11.3 km/h 77% 0 mm 0 W/m2
19:59 12.3 °C 8.6 °C 1014.8 hPa SSE 11.3 km/h 11.3 km/h 78% 0 mm 0 W/m2
20:05 12.4 °C 8.4 °C 1014.8 hPa SSE 11.3 km/h 12.9 km/h 77% 0 mm 0 W/m2
20:12 12.3 °C 8.4 °C 1014.8 hPa South 11.3 km/h 11.3 km/h 77% 0 mm 0 W/m2
20:18 12.2 °C 8.3 °C 1014.8 hPa SSW 9.7 km/h 11.3 km/h 77% 0 mm 0 W/m2
20:24 12.2 °C 8.4 °C 1014.8 hPa SW 8 km/h 11.3 km/h 78% 0 mm 0 W/m2
20:28 12.3 °C 8.6 °C 1014.8 hPa SSE 8 km/h 11.3 km/h 78% 0 mm 0 W/m2
20:33 12.1 °C 8.2 °C 1014.4 hPa South 8 km/h 8 km/h 77% 0 mm 0 W/m2
20:40 12.1 °C 8.5 °C 1014.4 hPa SSE 6.4 km/h 6.4 km/h 79% 0 mm 0 W/m2
20:46 12.3 °C 8.6 °C 1014.4 hPa SSW 8 km/h 17.7 km/h 78% 0 mm 0 W/m2
20:52 12.4 °C 8.7 °C 1014.4 hPa South 8 km/h 8 km/h 78% 0 mm 0 W/m2
20:58 12.4 °C 8.7 °C 1014.1 hPa South 8 km/h 12.9 km/h 78% 0 mm 0 W/m2
21:08 12 °C 8.3 °C 1014.4 hPa SSE 4.8 km/h 8 km/h 78% 0 mm 0 W/m2
21:13 11.9 °C 8.2 °C 1014.4 hPa South 4.8 km/h 9.7 km/h 78% 0 mm 0 W/m2
21:19 11.7 °C 8 °C 1014.4 hPa South 4.8 km/h 4.8 km/h 78% 0 mm 0 W/m2
21:32 11.5 °C 8 °C 1014.4 hPa South 4.8 km/h 6.4 km/h 79% 0 mm 0 W/m2
21:43 11.3 °C 8 °C 1014.4 hPa SSW 3.2 km/h 3.2 km/h 80% 0 mm 0 W/m2
21:50 11.4 °C 7.9 °C 1014.4 hPa SSW 3.2 km/h 4.8 km/h 79% 0 mm 0 W/m2
21:56 11.8 °C 8.4 °C 1014.8 hPa SSW 4.8 km/h 4.8 km/h 80% 0 mm 0 W/m2
22:02 12.1 °C 8.4 °C 1014.8 hPa SSW 4.8 km/h 4.8 km/h 78% 0 mm 0 W/m2
22:13 12.1 °C 8.4 °C 1014.4 hPa SW 4.8 km/h 9.7 km/h 78% 0 mm 0 W/m2
22:20 12.3 °C 8.6 °C 1014.4 hPa SW 4.8 km/h 4.8 km/h 78% 0 mm 0 W/m2
22:25 12.4 °C 8.7 °C 1014.4 hPa South 6.4 km/h 11.3 km/h 78% 0 mm 0 W/m2
22:32 12.5 °C 8.8 °C 1014.1 hPa SSE 8 km/h 8 km/h 78% 0 mm 0 W/m2
22:38 12.3 °C 8.8 °C 1014.1 hPa SSW 8 km/h 12.9 km/h 79% 0 mm 0 W/m2
22:44 12.2 °C 8.8 °C 1013.8 hPa South 8 km/h 12.9 km/h 80% 0 mm 0 W/m2
22:49 12.1 °C 8.9 °C 1013.8 hPa SSW 8 km/h 8 km/h 81% 0 mm 0 W/m2
22:56 12.1 °C 8.9 °C 1013.4 hPa SSW 8 km/h 8 km/h 81% 1.02 mm 0 W/m2
23:08 11.8 °C 9 °C 1013.4 hPa SSE 4.8 km/h 9.7 km/h 83% 1.52 mm 0 W/m2
23:14 11.6 °C 9 °C 1013.4 hPa SSW 3.2 km/h 4.8 km/h 84% 1.27 mm 0 W/m2
23:19 11.2 °C 8.7 °C 1013.1 hPa SSE 4.8 km/h 4.8 km/h 85% 0 mm 0 W/m2
23:26 11.2 °C 8.9 °C 1013.1 hPa SSE 3.2 km/h 4.8 km/h 86% 0 mm 0 W/m2
23:32 11.2 °C 8.9 °C 1013.1 hPa SSE 1.6 km/h 1.6 km/h 86% 1.52 mm 0 W/m2
23:38 10.9 °C 8.7 °C 1012.8 hPa SSE 3.2 km/h 3.2 km/h 86% 1.52 mm 0 W/m2
23:44 10.9 °C 8.8 °C 1012.8 hPa SSE 3.2 km/h 3.2 km/h 87% 1.02 mm 0 W/m2
23:50 10.9 °C 9.1 °C 1012.4 hPa SSE 3.2 km/h 4.8 km/h 88% 0 mm 0 W/m2
23:55 11.1 °C 9.2 °C 1012.4 hPa SSE 3.2 km/h 4.8 km/h 88% 2.79 mm 0 W/m2
Country Meadow, Clay, NY, USA
Compliments of Weather Underground - 2 mb